Time;durP1;ratioP1;P1;durP2;ratioP2;P2;SDS_P1;SDS_P2;PMS_P1;PMS_P2;Temp;Humidity;BMP_temperature;BMP_pressure;BME280_temperature;BME280_humidity;BME280_pressure;Samples;Min_cycle;Max_cycle;Signal;HPM_P1;HPM_P2
2023/08/19 00:00:49;;;;;;;7.55;6.82;;;24.90;71.70;;;;;;5010129;28;20474;-65
2023/08/19 00:03:15;;;;;;;7.63;7.03;;;24.90;71.60;;;;;;5010644;28;20030;-63
2023/08/19 00:05:40;;;;;;;7.70;6.90;;;24.90;71.80;;;;;;5009217;28;20026;-67
2023/08/19 00:08:06;;;;;;;7.35;6.72;;;24.90;71.60;;;;;;5004185;28;20074;-63
2023/08/19 00:10:31;;;;;;;8.95;7.25;;;24.90;71.60;;;;;;5004276;28;20121;-64
2023/08/19 00:12:57;;;;;;;7.55;6.78;;;24.90;71.70;;;;;;5006357;28;20588;-64
2023/08/19 00:15:22;;;;;;;7.40;6.70;;;24.90;71.50;;;;;;5007328;28;20045;-66
2023/08/19 00:17:48;;;;;;;7.60;7.00;;;24.90;71.50;;;;;;5005567;28;20042;-67
2023/08/19 00:20:14;;;;;;;7.70;7.10;;;24.90;71.60;;;;;;5007861;28;20121;-67
2023/08/19 00:22:39;;;;;;;7.72;6.93;;;24.90;71.40;;;;;;5008823;28;20129;-65
2023/08/19 00:25:05;;;;;;;7.20;6.60;;;24.90;71.60;;;;;;5006762;28;20058;-65
2023/08/19 00:27:31;;;;;;;8.40;6.97;;;24.90;71.60;;;;;;5008292;28;20725;-65
2023/08/19 00:29:56;;;;;;;8.05;7.45;;;24.90;71.40;;;;;;5006590;28;20041;-66
2023/08/19 00:32:22;;;;;;;7.35;6.65;;;24.90;71.50;;;;;;5005489;28;20038;-64
2023/08/19 00:34:47;;;;;;;7.25;6.65;;;24.90;71.60;;;;;;4982323;28;20374;-65
2023/08/19 00:37:13;;;;;;;7.53;6.75;;;24.90;71.50;;;;;;4996127;28;20231;-65
2023/08/19 00:39:38;;;;;;;8.82;7.25;;;24.90;71.40;;;;;;5006015;28;20045;-66
2023/08/19 00:42:06;;;;;;;7.88;7.18;;;24.90;71.60;;;;;;5004364;28;20347;-65
2023/08/19 00:44:34;;;;;;;7.63;6.75;;;24.80;71.40;;;;;;5004309;28;20317;-65
2023/08/19 00:47:03;;;;;;;7.78;7.10;;;24.80;71.40;;;;;;5005117;28;20108;-65
2023/08/19 00:49:30;;;;;;;8.18;7.43;;;24.80;71.50;;;;;;5007389;28;20038;-64
2023/08/19 00:51:57;;;;;;;8.00;7.25;;;24.80;71.40;;;;;;5006361;28;20092;-65
2023/08/19 00:54:22;;;;;;;8.15;7.35;;;24.90;71.50;;;;;;5012237;28;20041;-65
2023/08/19 00:56:48;;;;;;;7.70;6.72;;;24.90;71.40;;;;;;5006194;28;20042;-63
2023/08/19 00:59:14;;;;;;;7.57;6.88;;;24.90;71.60;;;;;;5010331;28;20529;-64
2023/08/19 01:01:39;;;;;;;7.38;6.78;;;24.90;71.40;;;;;;5003319;28;20121;-64
2023/08/19 01:04:05;;;;;;;7.50;6.80;;;24.80;71.20;;;;;;5007008;28;20270;-65
2023/08/19 01:06:42;;;;;;;7.45;6.75;;;24.80;71.30;;;;;;5005268;28;20030;-64
2023/08/19 01:09:25;;;;;;;8.00;7.25;;;24.80;71.40;;;;;;5002339;28;20064;-63
2023/08/19 01:12:11;;;;;;;7.97;7.28;;;24.80;71.50;;;;;;5002808;28;20048;-62
2023/08/19 01:14:44;;;;;;;7.68;7.07;;;24.90;71.50;;;;;;4999027;28;20049;-59
2023/08/19 01:17:14;;;;;;;8.45;7.65;;;24.80;71.40;;;;;;5004894;28;20041;-61
2023/08/19 01:19:41;;;;;;;8.15;7.55;;;24.80;71.40;;;;;;5003549;28;20029;-66
2023/08/19 01:22:09;;;;;;;7.10;6.50;;;24.80;71.50;;;;;;5008785;28;20036;-60
2023/08/19 01:24:38;;;;;;;8.85;7.95;;;24.80;71.20;;;;;;5007585;28;20034;-67
2023/08/19 01:27:05;;;;;;;8.20;7.50;;;24.80;71.10;;;;;;5004275;28;20102;-62
2023/08/19 01:29:31;;;;;;;8.13;7.43;;;24.80;71.70;;;;;;5008713;28;20172;-65
2023/08/19 01:31:57;;;;;;;8.43;7.60;;;24.80;70.90;;;;;;5002775;28;20120;-67
2023/08/19 01:34:24;;;;;;;8.02;7.22;;;24.80;71.10;;;;;;5005302;28;20034;-67
2023/08/19 01:36:54;;;;;;;7.90;7.20;;;24.80;70.90;;;;;;5000745;28;20038;-64
2023/08/19 01:39:22;;;;;;;8.80;7.50;;;24.80;71.10;;;;;;5005798;28;20178;-64
2023/08/19 01:41:49;;;;;;;7.95;7.25;;;24.80;71.10;;;;;;5005967;28;21214;-63
2023/08/19 01:44:15;;;;;;;7.82;7.13;;;24.80;70.90;;;;;;5005782;28;20038;-65
2023/08/19 01:46:41;;;;;;;8.50;7.70;;;24.80;71.10;;;;;;5004755;28;20038;-61
2023/08/19 01:49:06;;;;;;;8.20;7.50;;;24.80;71.00;;;;;;5007258;28;20037;-63
2023/08/19 01:51:32;;;;;;;8.95;8.25;;;24.70;71.00;;;;;;4985853;28;20602;-66
2023/08/19 01:53:58;;;;;;;7.65;7.05;;;24.80;71.10;;;;;;5004673;28;20029;-66
2023/08/19 01:56:23;;;;;;;8.52;7.75;;;24.80;71.10;;;;;;5006646;28;20041;-65
2023/08/19 01:58:49;;;;;;;8.32;7.50;;;24.80;71.10;;;;;;5003252;28;21481;-67
2023/08/19 02:01:14;;;;;;;7.68;6.80;;;24.70;71.10;;;;;;5004691;28;20933;-66
2023/08/19 02:03:40;;;;;;;7.50;6.80;;;24.80;71.10;;;;;;5002820;28;20029;-65
2023/08/19 02:06:06;;;;;;;7.43;6.82;;;24.80;71.20;;;;;;5001690;28;20053;-60
2023/08/19 02:08:31;;;;;;;7.53;6.88;;;24.80;71.20;;;;;;5003744;28;20049;-66
2023/08/19 02:10:57;;;;;;;7.35;6.85;;;24.80;71.10;;;;;;5005601;28;20033;-65
2023/08/19 02:13:22;;;;;;;8.82;7.95;;;24.80;71.10;;;;;;5001867;28;20027;-61
2023/08/19 02:15:48;;;;;;;7.80;7.10;;;24.70;71.00;;;;;;4999397;28;20069;-65
2023/08/19 02:18:14;;;;;;;7.85;7.20;;;24.70;71.10;;;;;;5004340;28;20536;-65
2023/08/19 02:20:39;;;;;;;8.95;7.15;;;24.70;71.00;;;;;;5005490;28;20034;-64
2023/08/19 02:23:05;;;;;;;8.63;7.85;;;24.70;70.90;;;;;;5002417;28;20350;-66
2023/08/19 02:25:30;;;;;;;8.13;7.43;;;24.70;71.00;;;;;;5007194;28;20054;-65
2023/08/19 02:27:56;;;;;;;8.25;7.60;;;24.70;71.00;;;;;;5007572;28;20029;-66
2023/08/19 02:30:21;;;;;;;8.65;7.93;;;24.70;70.90;;;;;;5005006;28;20046;-65
2023/08/19 02:32:47;;;;;;;8.32;7.57;;;24.70;70.90;;;;;;5005704;28;20025;-63
2023/08/19 02:35:12;;;;;;;8.20;7.53;;;24.70;70.90;;;;;;4985182;28;20054;-64
2023/08/19 02:37:38;;;;;;;7.72;7.03;;;24.70;70.80;;;;;;5009856;28;20034;-64
2023/08/19 02:40:05;;;;;;;8.23;7.53;;;24.70;70.90;;;;;;5009420;28;20030;-67
2023/08/19 02:42:31;;;;;;;8.45;7.72;;;24.70;71.00;;;;;;5008761;28;20034;-67
2023/08/19 02:44:57;;;;;;;7.55;6.85;;;24.70;71.00;;;;;;4987781;28;20027;-65
2023/08/19 02:47:23;;;;;;;8.85;7.80;;;24.70;70.90;;;;;;5010807;28;20034;-60
2023/08/19 02:49:48;;;;;;;7.63;7.03;;;24.70;70.90;;;;;;5006147;28;20099;-59
2023/08/19 02:52:14;;;;;;;8.18;7.47;;;24.70;71.10;;;;;;5011317;28;20096;-64
2023/08/19 02:54:39;;;;;;;7.70;7.10;;;24.70;71.10;;;;;;5013523;28;20041;-65
2023/08/19 02:57:05;;;;;;;8.88;8.13;;;24.70;70.90;;;;;;5010329;28;20511;-65
2023/08/19 02:59:31;;;;;;;8.38;7.68;;;24.70;70.90;;;;;;5007163;28;20046;-60
2023/08/19 03:01:56;;;;;;;7.72;7.03;;;24.70;70.80;;;;;;5005516;28;20026;-65
2023/08/19 03:04:22;;;;;;;8.38;7.57;;;24.70;70.80;;;;;;5007241;28;20053;-65
2023/08/19 03:06:47;;;;;;;7.88;7.28;;;24.70;70.90;;;;;;5007240;28;20165;-65
2023/08/19 03:09:13;;;;;;;7.90;7.28;;;24.70;70.70;;;;;;5011228;28;20073;-64
2023/08/19 03:11:41;;;;;;;8.75;7.90;;;24.70;70.90;;;;;;5003102;28;20102;-63
2023/08/19 03:14:07;;;;;;;7.88;7.18;;;24.70;70.80;;;;;;5005189;28;20049;-65
2023/08/19 03:16:32;;;;;;;8.77;8.07;;;24.70;70.80;;;;;;5012749;28;20034;-65
2023/08/19 03:18:58;;;;;;;7.57;6.95;;;24.70;70.70;;;;;;5006044;28;20026;-66
2023/08/19 03:21:23;;;;;;;8.38;7.65;;;24.70;70.80;;;;;;5012330;28;20049;-63
2023/08/19 03:23:49;;;;;;;7.85;7.05;;;24.70;70.80;;;;;;5009063;28;20025;-63
2023/08/19 03:26:14;;;;;;;8.07;7.38;;;24.60;70.60;;;;;;5008521;28;20548;-66
2023/08/19 03:28:40;;;;;;;7.75;7.05;;;24.70;70.70;;;;;;5001607;28;20118;-61
2023/08/19 03:31:10;;;;;;;8.38;7.68;;;24.70;70.80;;;;;;5007410;28;20065;-65
2023/08/19 03:33:35;;;;;;;8.65;7.75;;;24.60;69.90;;;;;;5005041;28;20443;-68
2023/08/19 03:36:01;;;;;;;8.45;7.65;;;24.50;69.70;;;;;;5005818;28;20026;-61
2023/08/19 03:38:27;;;;;;;8.27;7.47;;;24.50;69.80;;;;;;5014416;28;20106;-66
2023/08/19 03:40:52;;;;;;;8.30;7.60;;;24.40;69.20;;;;;;5001574;28;20026;-63
2023/08/19 03:43:18;;;;;;;8.70;7.80;;;24.40;69.20;;;;;;5009979;28;20057;-65
2023/08/19 03:45:43;;;;;;;8.63;7.82;;;24.40;69.10;;;;;;4999835;28;20044;-58
2023/08/19 03:48:09;;;;;;;8.63;7.93;;;24.40;68.80;;;;;;5007200;28;20021;-59
2023/08/19 03:50:35;;;;;;;8.23;7.40;;;24.30;68.80;;;;;;5010307;28;20022;-66
2023/08/19 03:53:00;;;;;;;8.27;7.47;;;24.30;68.90;;;;;;5008531;28;20026;-66
2023/08/19 03:55:26;;;;;;;8.23;7.50;;;24.30;68.70;;;;;;5007160;28;20451;-69
2023/08/19 03:57:52;;;;;;;7.90;7.20;;;24.30;68.80;;;;;;5008600;28;20080;-65
2023/08/19 04:00:17;;;;;;;8.35;7.43;;;24.30;68.70;;;;;;5008479;28;20038;-66
2023/08/19 04:02:43;;;;;;;10.35;8.15;;;24.30;68.70;;;;;;5004501;28;20116;-66
2023/08/19 04:05:10;;;;;;;8.57;7.68;;;24.30;68.80;;;;;;5006672;28;20025;-64
2023/08/19 04:07:36;;;;;;;10.10;7.78;;;24.30;68.70;;;;;;5007924;28;20037;-65
2023/08/19 04:10:01;;;;;;;9.10;8.07;;;24.30;68.70;;;;;;5007501;28;20061;-65
2023/08/19 04:12:27;;;;;;;9.65;8.70;;;24.30;68.70;;;;;;5001863;28;20076;-66
2023/08/19 04:14:53;;;;;;;9.02;8.23;;;24.30;68.70;;;;;;4985399;28;20034;-66
2023/08/19 04:17:18;;;;;;;9.10;8.30;;;24.30;68.70;;;;;;5007347;28;20026;-64
2023/08/19 04:19:47;;;;;;;8.52;7.72;;;24.30;68.80;;;;;;5011107;28;20022;-61
2023/08/19 04:22:16;;;;;;;8.82;7.97;;;24.20;68.60;;;;;;5003783;28;20030;-67
2023/08/19 04:24:42;;;;;;;8.65;7.72;;;24.20;68.70;;;;;;5004340;28;20120;-67
2023/08/19 04:27:08;;;;;;;8.75;7.93;;;24.20;68.80;;;;;;5007386;28;20034;-67
2023/08/19 04:29:34;;;;;;;9.52;8.30;;;24.20;68.80;;;;;;5006655;28;20128;-66
2023/08/19 04:32:03;;;;;;;8.48;7.75;;;24.20;68.90;;;;;;5004004;28;20033;-60
2023/08/19 04:34:29;;;;;;;9.00;7.93;;;24.20;68.90;;;;;;5010331;28;20064;-61
2023/08/19 04:36:55;;;;;;;8.45;7.75;;;24.20;68.90;;;;;;5005388;28;20069;-66
2023/08/19 04:39:21;;;;;;;9.20;8.27;;;24.20;68.90;;;;;;5006177;28;20947;-64
2023/08/19 04:41:47;;;;;;;8.40;7.70;;;24.20;68.90;;;;;;5004548;28;20507;-63
2023/08/19 04:44:13;;;;;;;9.15;8.27;;;24.20;68.90;;;;;;5006828;28;20029;-66
2023/08/19 04:46:38;;;;;;;7.97;7.28;;;24.20;68.90;;;;;;5007701;28;20030;-62
2023/08/19 04:49:05;;;;;;;8.63;7.93;;;24.20;68.90;;;;;;5003480;28;20548;-65
2023/08/19 04:51:31;;;;;;;8.32;7.53;;;24.20;68.90;;;;;;5004978;28;20022;-67
2023/08/19 04:53:56;;;;;;;8.35;7.43;;;24.20;69.00;;;;;;5009557;28;20100;-68
2023/08/19 04:56:22;;;;;;;8.10;7.40;;;24.20;69.00;;;;;;5005697;28;20038;-61
2023/08/19 04:58:47;;;;;;;8.35;7.65;;;24.20;69.00;;;;;;5008813;28;20725;-61
2023/08/19 05:01:13;;;;;;;9.30;8.30;;;24.20;69.10;;;;;;5002286;28;20025;-64
2023/08/19 05:03:39;;;;;;;8.95;7.65;;;24.20;69.10;;;;;;5005597;28;20022;-65
2023/08/19 05:06:04;;;;;;;7.63;6.93;;;24.20;69.30;;;;;;5005729;28;20025;-66
2023/08/19 05:08:30;;;;;;;8.13;6.97;;;24.20;69.40;;;;;;5006524;28;20036;-63
2023/08/19 05:10:56;;;;;;;7.80;7.05;;;24.20;69.50;;;;;;5005612;28;20030;-61
2023/08/19 05:13:21;;;;;;;10.45;9.07;;;24.30;69.60;;;;;;5004370;28;20396;-60
2023/08/19 05:15:47;;;;;;;7.30;6.60;;;24.30;69.80;;;;;;5003615;28;20127;-62
2023/08/19 05:18:12;;;;;;;8.38;7.57;;;24.30;69.90;;;;;;4989370;28;20049;-66
2023/08/19 05:20:38;;;;;;;8.27;7.47;;;24.30;70.10;;;;;;5004012;28;20561;-61
2023/08/19 05:23:03;;;;;;;9.48;7.68;;;24.30;70.20;;;;;;5006828;28;20353;-59
2023/08/19 05:25:29;;;;;;;8.98;8.23;;;24.30;71.00;;;;;;5005044;28;20117;-66
2023/08/19 05:27:56;;;;;;;7.53;6.85;;;24.30;70.60;;;;;;5009266;28;20115;-65
2023/08/19 05:30:22;;;;;;;8.35;7.50;;;24.30;70.60;;;;;;5005802;28;20428;-64
2023/08/19 05:32:48;;;;;;;9.73;8.07;;;24.30;70.80;;;;;;5008885;28;20096;-58
2023/08/19 05:35:13;;;;;;;7.72;6.90;;;24.40;71.00;;;;;;5003242;28;20041;-66
2023/08/19 05:37:39;;;;;;;8.32;7.63;;;24.40;71.00;;;;;;5009938;28;20034;-66
2023/08/19 05:40:05;;;;;;;8.43;7.57;;;24.30;71.10;;;;;;5005195;28;20030;-65
2023/08/19 05:42:30;;;;;;;8.77;7.63;;;24.40;71.30;;;;;;5001836;28;20206;-64
2023/08/19 05:44:56;;;;;;;8.32;7.63;;;24.40;71.30;;;;;;5005934;28;20537;-67
2023/08/19 05:47:22;;;;;;;7.82;7.10;;;24.50;71.40;;;;;;5005277;28;20037;-65
2023/08/19 05:49:47;;;;;;;7.68;7.07;;;24.50;71.60;;;;;;5004943;28;20022;-60
2023/08/19 05:52:13;;;;;;;7.70;7.00;;;24.50;71.00;;;;;;5007840;28;20025;-67
2023/08/19 05:54:38;;;;;;;7.45;6.72;;;24.50;70.90;;;;;;4988293;28;20026;-65
2023/08/19 05:57:04;;;;;;;8.88;8.02;;;24.50;70.80;;;;;;5009540;28;20026;-56
2023/08/19 05:59:29;;;;;;;7.68;6.97;;;24.50;70.80;;;;;;5006862;28;20428;-60
2023/08/19 06:01:55;;;;;;;7.25;6.65;;;24.50;70.50;;;;;;5009210;28;20109;-66
2023/08/19 06:04:20;;;;;;;8.52;7.82;;;24.60;70.50;;;;;;5002283;28;20051;-57
2023/08/19 06:06:46;;;;;;;7.63;6.68;;;24.60;70.60;;;;;;5005276;28;20105;-65
2023/08/19 06:09:11;;;;;;;7.75;6.97;;;24.60;70.50;;;;;;5000499;28;20047;-66
2023/08/19 06:11:47;;;;;;;7.47;6.78;;;24.60;70.50;;;;;;4998967;28;20125;-66
2023/08/19 06:14:12;;;;;;;;;;;24.60;70.50;;;;;;5006799;28;20545;-65
2023/08/19 06:16:37;;;;;;;8.05;7.30;;;24.60;70.50;;;;;;5003531;28;19905;-62
2023/08/19 06:19:03;;;;;;;7.32;6.72;;;24.60;70.50;;;;;;5008235;28;20041;-66
2023/08/19 06:21:28;;;;;;;7.35;6.75;;;24.60;70.60;;;;;;5004553;28;20037;-65
2023/08/19 06:23:54;;;;;;;7.70;7.00;;;24.60;71.30;;;;;;5006725;28;20026;-65
2023/08/19 06:26:19;;;;;;;9.23;7.55;;;24.50;71.80;;;;;;5007673;28;20045;-60
2023/08/19 06:28:45;;;;;;;10.55;7.85;;;24.50;71.20;;;;;;5009306;28;20079;-61
2023/08/19 06:31:11;;;;;;;11.30;7.47;;;24.50;71.20;;;;;;5006161;28;20400;-62
2023/08/19 06:33:37;;;;;;;10.98;7.72;;;24.50;71.10;;;;;;5005140;28;20101;-66
2023/08/19 06:36:03;;;;;;;10.13;7.63;;;24.60;71.10;;;;;;5001510;28;20080;-64
2023/08/19 06:38:30;;;;;;;13.02;8.40;;;24.60;71.10;;;;;;4998531;28;20053;-64
2023/08/19 06:41:04;;;;;;;13.45;7.80;;;24.60;71.00;;;;;;5002612;28;20465;-62
2023/08/19 06:43:31;;;;;;;20.73;8.93;;;24.60;70.90;;;;;;5000555;28;20080;-66
2023/08/19 06:45:57;;;;;;;19.45;8.55;;;24.60;71.00;;;;;;5003476;28;20042;-62
2023/08/19 06:48:23;;;;;;;22.23;9.85;;;24.70;71.10;;;;;;5005626;28;20114;-59
2023/08/19 06:50:50;;;;;;;16.20;8.68;;;24.70;71.40;;;;;;5005972;28;20037;-62
2023/08/19 06:53:16;;;;;;;22.80;8.75;;;24.70;72.00;;;;;;5006506;28;20104;-65
2023/08/19 06:55:50;;;;;;;17.58;8.30;;;24.70;71.80;;;;;;5006600;28;20179;-68
2023/08/19 06:58:24;;;;;;;10.95;8.15;;;24.70;71.80;;;;;;4993306;28;20769;-66
2023/08/19 07:00:53;;;;;;;10.18;8.13;;;24.70;72.00;;;;;;4999940;28;20038;-68
2023/08/19 07:03:20;;;;;;;8.70;7.82;;;24.80;72.00;;;;;;5004282;28;20060;-65
2023/08/19 07:05:47;;;;;;;9.35;8.45;;;24.70;71.80;;;;;;4998011;28;20570;-65
2023/08/19 07:08:14;;;;;;;11.50;8.80;;;24.70;72.10;;;;;;5003897;28;20037;-66
2023/08/19 07:10:40;;;;;;;9.95;8.95;;;24.80;71.90;;;;;;5000530;28;20048;-65
2023/08/19 07:13:06;;;;;;;8.93;7.65;;;24.80;72.00;;;;;;5003418;28;20066;-66
2023/08/19 07:15:32;;;;;;;9.80;7.68;;;24.80;72.10;;;;;;5002085;28;20037;-64
2023/08/19 07:18:01;;;;;;;9.35;8.38;;;24.80;71.80;;;;;;5005480;28;20106;-64
2023/08/19 07:20:26;;;;;;;8.75;7.95;;;24.80;71.60;;;;;;5009038;28;20165;-59
2023/08/19 07:22:53;;;;;;;9.82;8.82;;;24.80;71.70;;;;;;5010654;28;20101;-63
2023/08/19 07:25:19;;;;;;;8.18;7.45;;;24.80;71.70;;;;;;5006287;28;20029;-64
2023/08/19 07:27:46;;;;;;;8.95;8.15;;;24.80;71.60;;;;;;5007527;28;20029;-63
2023/08/19 07:30:12;;;;;;;8.52;7.72;;;24.80;71.70;;;;;;5002672;28;20033;-64
2023/08/19 07:32:38;;;;;;;8.77;7.97;;;24.80;71.70;;;;;;5006915;28;20034;-65
2023/08/19 07:35:05;;;;;;;8.63;7.72;;;24.80;71.40;;;;;;5004953;28;20041;-61
2023/08/19 07:37:31;;;;;;;9.02;8.13;;;24.90;71.30;;;;;;5000188;28;20048;-61
2023/08/19 07:39:58;;;;;;;9.07;8.25;;;24.90;71.20;;;;;;5001162;28;20030;-63
2023/08/19 07:42:24;;;;;;;8.80;7.97;;;24.90;71.20;;;;;;5005882;28;20033;-64
2023/08/19 07:44:49;;;;;;;8.32;7.53;;;24.90;70.90;;;;;;5007206;28;20030;-60
2023/08/19 07:47:15;;;;;;;7.95;7.25;;;24.90;70.70;;;;;;5010216;28;20034;-61
2023/08/19 07:49:40;;;;;;;8.65;7.85;;;24.90;70.60;;;;;;5010636;28;20029;-66
2023/08/19 07:52:06;;;;;;;9.35;8.48;;;24.90;70.40;;;;;;5011093;28;20029;-64
2023/08/19 07:54:32;;;;;;;9.90;8.45;;;24.90;70.40;;;;;;5010140;28;20407;-58
2023/08/19 07:56:58;;;;;;;8.73;7.93;;;24.90;70.30;;;;;;5010835;28;20056;-65
2023/08/19 07:59:25;;;;;;;8.98;8.15;;;24.90;70.10;;;;;;5008546;28;20037;-65
2023/08/19 08:01:50;;;;;;;8.90;8.10;;;24.90;70.20;;;;;;5003428;28;20028;-63
2023/08/19 08:04:16;;;;;;;8.52;7.63;;;24.90;70.10;;;;;;5006423;28;20150;-67
2023/08/19 08:06:42;;;;;;;8.68;7.88;;;24.90;70.30;;;;;;5002425;28;20026;-62
2023/08/19 08:09:08;;;;;;;8.50;7.80;;;24.90;70.30;;;;;;5004067;28;20048;-61
2023/08/19 08:11:33;;;;;;;8.55;7.85;;;24.90;70.20;;;;;;5003086;28;20041;-65
2023/08/19 08:13:59;;;;;;;8.10;7.40;;;24.90;70.10;;;;;;5007139;28;20484;-63
2023/08/19 08:16:25;;;;;;;8.98;8.07;;;24.90;70.30;;;;;;5009919;28;20120;-65
2023/08/19 08:18:51;;;;;;;8.18;7.38;;;24.90;70.30;;;;;;5011336;28;20116;-60
2023/08/19 08:21:18;;;;;;;8.68;7.93;;;24.90;70.30;;;;;;5010267;28;20033;-66
2023/08/19 08:23:43;;;;;;;9.20;8.40;;;25.00;70.20;;;;;;5004877;28;20215;-66
2023/08/19 08:26:09;;;;;;;8.38;7.57;;;25.00;70.20;;;;;;5012571;28;20567;-65
2023/08/19 08:28:34;;;;;;;8.48;7.70;;;24.90;70.00;;;;;;5005448;28;20121;-68
2023/08/19 08:31:00;;;;;;;8.07;7.28;;;24.90;69.80;;;;;;4984247;28;20044;-67
2023/08/19 08:33:25;;;;;;;9.10;8.27;;;25.00;69.30;;;;;;5005865;28;20123;-61
2023/08/19 08:35:51;;;;;;;8.52;7.82;;;25.00;69.80;;;;;;5000976;28;20037;-65
2023/08/19 08:38:17;;;;;;;8.90;8.10;;;25.00;70.00;;;;;;5002524;28;20403;-65
2023/08/19 08:40:42;;;;;;;9.82;7.80;;;25.00;70.00;;;;;;5003895;28;20040;-64
2023/08/19 08:43:08;;;;;;;8.80;7.90;;;25.00;70.00;;;;;;5008577;28;20117;-65
2023/08/19 08:45:35;;;;;;;9.32;8.57;;;25.00;70.00;;;;;;5007568;28;20035;-61
2023/08/19 08:48:01;;;;;;;8.50;7.80;;;25.00;69.80;;;;;;5013445;28;22276;-65
2023/08/19 08:50:28;;;;;;;8.27;7.57;;;25.00;69.60;;;;;;5012057;28;20052;-64
2023/08/19 08:52:55;;;;;;;9.35;8.40;;;25.00;69.60;;;;;;5008444;28;20033;-66
2023/08/19 08:55:20;;;;;;;9.27;8.40;;;25.00;69.40;;;;;;4997592;28;20749;-65
2023/08/19 08:57:46;;;;;;;8.45;7.72;;;25.00;69.40;;;;;;5006290;28;20121;-65
2023/08/19 09:00:12;;;;;;;8.13;7.35;;;25.00;68.60;;;;;;5013547;28;20087;-65
2023/08/19 09:02:43;;;;;;;8.95;8.15;;;25.00;68.60;;;;;;5008689;28;20639;-65
2023/08/19 09:05:10;;;;;;;7.50;6.90;;;25.10;68.40;;;;;;5004643;28;20037;-63
2023/08/19 09:07:40;;;;;;;8.80;7.95;;;25.00;68.60;;;;;;5004444;28;20587;-66
2023/08/19 09:10:13;;;;;;;9.40;8.48;;;25.10;68.20;;;;;;5006703;28;20044;-61
2023/08/19 09:12:42;;;;;;;8.68;7.88;;;25.10;67.40;;;;;;5009408;28;20686;-67
2023/08/19 09:15:10;;;;;;;9.23;7.95;;;25.10;67.90;;;;;;5009260;28;20046;-65
2023/08/19 09:17:37;;;;;;;8.85;7.82;;;25.10;67.20;;;;;;5012300;28;20030;-62
2023/08/19 09:20:06;;;;;;;9.65;8.10;;;25.10;66.70;;;;;;5011621;28;20033;-64
2023/08/19 09:22:32;;;;;;;12.45;7.85;;;25.10;67.40;;;;;;5008543;28;20030;-65
2023/08/19 09:24:58;;;;;;;9.48;7.53;;;25.10;67.80;;;;;;5008055;28;20471;-60
2023/08/19 09:27:31;;;;;;;8.35;7.43;;;25.10;67.40;;;;;;4997192;28;20068;-65
2023/08/19 09:29:58;;;;;;;8.32;7.47;;;25.10;67.30;;;;;;5014052;28;20113;-66
2023/08/19 09:32:31;;;;;;;7.55;6.85;;;25.10;66.60;;;;;;5010739;28;20816;-66
2023/08/19 09:35:16;;;;;;;8.63;7.63;;;25.10;66.50;;;;;;4978804;28;20044;-65
2023/08/19 09:37:42;;;;;;;7.97;7.28;;;25.10;66.40;;;;;;5004471;28;20030;-67
2023/08/19 09:40:18;;;;;;;9.35;7.32;;;25.10;66.30;;;;;;5007597;28;20571;-64
2023/08/19 09:42:50;;;;;;;7.63;6.97;;;25.20;66.10;;;;;;5003652;28;20116;-65
2023/08/19 09:45:21;;;;;;;7.88;7.03;;;25.20;65.70;;;;;;5005482;28;20452;-64
2023/08/19 09:47:48;;;;;;;7.63;6.90;;;25.20;65.80;;;;;;5005258;28;20045;-64
2023/08/19 09:50:15;;;;;;;8.68;7.88;;;25.20;65.70;;;;;;5005522;28;20512;-66
2023/08/19 09:52:40;;;;;;;7.18;6.57;;;25.10;65.80;;;;;;5005960;28;20516;-67
2023/08/19 09:55:06;;;;;;;7.68;6.97;;;25.20;65.80;;;;;;5006232;28;20034;-65
2023/08/19 09:57:35;;;;;;;8.45;6.68;;;25.20;65.80;;;;;;5005659;28;20589;-64
2023/08/19 10:00:04;;;;;;;8.25;7.45;;;25.20;65.90;;;;;;4998931;28;20038;-66
2023/08/19 10:02:29;;;;;;;7.50;6.80;;;25.20;66.10;;;;;;5006839;28;20030;-64
2023/08/19 10:04:58;;;;;;;7.82;7.13;;;25.20;66.40;;;;;;5006028;28;20084;-64
2023/08/19 10:07:30;;;;;;;10.07;7.32;;;25.20;65.90;;;;;;5004688;28;20045;-64
2023/08/19 10:09:56;;;;;;;8.38;7.22;;;25.20;65.70;;;;;;5004885;28;20077;-65
2023/08/19 10:12:23;;;;;;;8.25;6.88;;;25.30;65.30;;;;;;5005250;28;20057;-66
2023/08/19 10:14:52;;;;;;;9.43;7.57;;;25.30;65.60;;;;;;5004890;28;20046;-67
2023/08/19 10:17:20;;;;;;;8.07;6.75;;;25.30;65.00;;;;;;5005094;28;20617;-64
2023/08/19 10:19:53;;;;;;;7.80;7.20;;;25.30;64.80;;;;;;5004121;28;20036;-65
2023/08/19 10:22:19;;;;;;;7.95;7.13;;;25.30;64.70;;;;;;4982876;28;20033;-65
2023/08/19 10:24:47;;;;;;;9.05;7.90;;;25.30;64.90;;;;;;4998376;28;20034;-65
2023/08/19 10:27:17;;;;;;;9.00;7.18;;;25.40;65.70;;;;;;5000731;28;20034;-66
2023/08/19 10:29:45;;;;;;;6.82;5.93;;;25.40;65.50;;;;;;5006323;28;20041;-67
2023/08/19 10:32:28;;;;;;;7.35;6.63;;;25.30;65.10;;;;;;5009405;28;20041;-65
2023/08/19 10:35:09;;;;;;;10.02;6.88;;;25.40;65.10;;;;;;5004035;28;20489;-65
2023/08/19 10:37:40;;;;;;;7.10;6.50;;;25.50;64.90;;;;;;5003518;28;20041;-65
2023/08/19 10:40:14;;;;;;;7.18;6.32;;;25.40;64.30;;;;;;5003233;28;20033;-67
2023/08/19 10:42:40;;;;;;;7.15;6.55;;;25.50;64.30;;;;;;5001384;28;20536;-68
2023/08/19 10:45:16;;;;;;;6.45;5.95;;;25.40;63.90;;;;;;5004966;28;20045;-68
2023/08/19 10:47:42;;;;;;;7.03;6.40;;;25.50;63.90;;;;;;5005068;28;20679;-65
2023/08/19 10:50:09;;;;;;;7.18;6.43;;;25.40;63.50;;;;;;4990779;28;20076;-67
2023/08/19 10:52:39;;;;;;;6.22;5.68;;;25.50;63.70;;;;;;5001422;28;20037;-64
2023/08/19 10:55:05;;;;;;;7.60;6.20;;;25.50;63.60;;;;;;5007244;28;20098;-66
2023/08/19 10:57:31;;;;;;;6.70;6.20;;;25.50;64.00;;;;;;5007804;28;20048;-66
2023/08/19 10:59:59;;;;;;;7.32;6.70;;;25.50;63.90;;;;;;5008454;28;20030;-65
2023/08/19 11:02:27;;;;;;;7.35;6.30;;;25.50;63.90;;;;;;5007861;28;20037;-65
2023/08/19 11:04:53;;;;;;;7.95;6.75;;;25.50;63.60;;;;;;5006351;28;20066;-66
2023/08/19 11:07:20;;;;;;;7.63;6.85;;;25.50;63.80;;;;;;5007074;28;20464;-65
2023/08/19 11:09:47;;;;;;;6.75;6.15;;;25.50;64.00;;;;;;5006879;28;20493;-65
2023/08/19 11:12:19;;;;;;;7.10;6.50;;;25.50;63.60;;;;;;5007011;28;20033;-67
2023/08/19 11:14:50;;;;;;;6.47;5.88;;;25.40;64.00;;;;;;5007614;28;20124;-67
2023/08/19 11:17:16;;;;;;;7.38;5.78;;;25.40;63.60;;;;;;5000688;28;20057;-65
2023/08/19 11:19:42;;;;;;;7.35;6.63;;;25.50;63.40;;;;;;5007258;28;20500;-64
2023/08/19 11:22:13;;;;;;;7.55;6.75;;;25.50;63.30;;;;;;5007751;28;20088;-63
2023/08/19 11:24:38;;;;;;;6.55;6.00;;;25.50;63.60;;;;;;5007135;28;20112;-65
2023/08/19 11:27:04;;;;;;;7.28;6.57;;;25.40;63.90;;;;;;5003275;28;20659;-66
2023/08/19 11:29:30;;;;;;;6.63;5.63;;;25.40;62.10;;;;;;5005447;28;20048;-67
2023/08/19 11:31:55;;;;;;;10.85;7.07;;;25.50;62.40;;;;;;5005188;28;20062;-66
2023/08/19 11:34:21;;;;;;;7.53;6.20;;;25.50;62.30;;;;;;5005564;28;20776;-67
2023/08/19 11:36:47;;;;;;;6.70;6.10;;;25.50;61.60;;;;;;5007417;28;20148;-64
2023/08/19 11:39:13;;;;;;;6.82;6.05;;;25.60;61.80;;;;;;5006172;28;20030;-65
2023/08/19 11:41:39;;;;;;;6.53;5.53;;;25.60;62.40;;;;;;5007099;28;20458;-65
2023/08/19 11:44:06;;;;;;;11.60;6.20;;;25.70;62.10;;;;;;5007968;28;20026;-66
2023/08/19 11:46:33;;;;;;;7.40;6.25;;;25.60;62.40;;;;;;5007027;28;20030;-65
2023/08/19 11:49:03;;;;;;;6.97;6.20;;;25.60;62.50;;;;;;5005694;28;20030;-66
2023/08/19 11:51:29;;;;;;;9.20;6.65;;;25.60;62.00;;;;;;5006584;28;20058;-67
2023/08/19 11:54:02;;;;;;;6.97;6.28;;;25.60;61.90;;;;;;5006384;28;20065;-66
2023/08/19 11:56:28;;;;;;;7.90;6.53;;;25.60;61.40;;;;;;5005235;28;20057;-68
2023/08/19 11:58:54;;;;;;;9.65;6.80;;;25.60;62.00;;;;;;5004854;28;20518;-67
2023/08/19 12:01:21;;;;;;;8.30;6.68;;;25.70;62.80;;;;;;5006000;28;20026;-68
2023/08/19 12:03:49;;;;;;;6.70;5.20;;;25.70;62.50;;;;;;5004027;28;20041;-67
2023/08/19 12:06:15;;;;;;;12.88;6.80;;;25.70;62.20;;;;;;5005545;28;20026;-66
2023/08/19 12:08:43;;;;;;;7.30;6.60;;;25.80;62.50;;;;;;5005410;28;20132;-67
2023/08/19 12:11:10;;;;;;;8.70;5.65;;;25.80;62.20;;;;;;4999026;28;20030;-66
2023/08/19 12:13:36;;;;;;;6.78;6.18;;;25.80;62.20;;;;;;5004684;28;20026;-66
2023/08/19 12:16:03;;;;;;;8.23;7.03;;;25.80;62.30;;;;;;5006626;28;20632;-65
2023/08/19 12:18:34;;;;;;;7.93;5.97;;;25.70;62.50;;;;;;4999281;28;20489;-66
2023/08/19 12:21:03;;;;;;;8.85;6.50;;;25.70;62.80;;;;;;5005874;28;20038;-66
2023/08/19 12:23:30;;;;;;;6.40;5.63;;;25.70;61.20;;;;;;5003342;28;20037;-64
2023/08/19 12:25:58;;;;;;;6.40;5.38;;;25.70;61.30;;;;;;5005972;28;20037;-64
2023/08/19 12:28:25;;;;;;;10.23;6.97;;;25.70;61.70;;;;;;5003779;28;20496;-66
2023/08/19 12:30:52;;;;;;;8.02;6.30;;;25.80;61.80;;;;;;5004181;28;20570;-66
2023/08/19 12:33:19;;;;;;;8.02;5.75;;;25.80;61.70;;;;;;5004684;28;20030;-65
2023/08/19 12:35:46;;;;;;;8.40;6.75;;;25.80;60.90;;;;;;5005586;28;20199;-68
2023/08/19 12:38:18;;;;;;;7.10;5.80;;;25.90;61.30;;;;;;5002545;28;20106;-67
2023/08/19 12:40:45;;;;;;;8.60;6.07;;;25.90;61.20;;;;;;5002297;28;20388;-68
2023/08/19 12:43:12;;;;;;;8.50;5.68;;;25.90;61.70;;;;;;5003240;28;20072;-65